| time (UTC) | temp C | wind direction | speed KPH | gust KPH | rain 1hr cm | rain 24hr cm | rain mn cm | humidity % | barometer mb |
| 20260507153024 | 15 | 68 | 11.3 | 19.3 | 0.00 | 0.00 | 0.00 | 48 | 1017.1 |
| 20260507152024 | 15 | 90 | 11.3 | 19.3 | 0.00 | 0.00 | 0.00 | 49 | 1017.0 |
| 20260507151024 | 15 | 90 | 12.9 | 17.7 | 0.00 | 0.00 | 0.00 | 49 | 1017.0 |
| 20260507150025 | 15 | 90 | 11.3 | 17.7 | 0.00 | 0.00 | 0.00 | 49 | 1016.9 |
| 20260507145025 | 15 | 90 | 11.3 | 20.9 | 0.00 | 0.00 | 0.00 | 50 | 1016.9 |
| 20260507144024 | 15 | 90 | 9.7 | 22.5 | 0.00 | 0.00 | 0.00 | 50 | 1016.9 |
| 20260507143025 | 15 | 68 | 8.0 | 17.7 | 0.00 | 0.00 | 0.00 | 51 | 1016.9 |
| 20260507142025 | 15 | 113 | 9.7 | 17.7 | 0.00 | 0.00 | 0.00 | 49 | 1017.0 |
| 20260507141025 | 15 | 90 | 11.3 | 25.7 | 0.00 | 0.00 | 0.00 | 51 | 1016.9 |
| 20260507140104 | 15 | 68 | 9.7 | 22.5 | 0.00 | 0.00 | 0.00 | 53 | 1017.0 |
| 20260507135045 | 15 | 90 | 9.7 | 20.9 | 0.00 | 0.00 | 0.00 | 51 | 1016.9 |
| 20260507134024 | 15 | 90 | 14.5 | 24.1 | 0.00 | 0.00 | 0.00 | 52 | 1017.0 |
| 20260507133024 | 15 | 90 | 16.1 | 22.5 | 0.00 | 0.00 | 0.00 | 51 | 1017.0 |
| 20260507132024 | 15 | 90 | 14.5 | 27.4 | 0.00 | 0.00 | 0.00 | 51 | 1016.9 |
| 20260507131024 | 15 | 90 | 8.0 | 16.1 | 0.00 | 0.00 | 0.00 | 52 | 1016.8 |
| 20260507130024 | 15 | 90 | 9.7 | 19.3 | 0.00 | 0.00 | 0.00 | 53 | 1016.7 |
| 20260507125025 | 15 | 90 | 14.5 | 25.7 | 0.00 | 0.00 | 0.00 | 52 | 1016.7 |
| 20260507124024 | 15 | 68 | 9.7 | 22.5 | 0.00 | 0.00 | 0.00 | 56 | 1016.7 |
| 20260507123044 | 15 | 90 | 4.8 | 17.7 | 0.00 | 0.00 | 0.00 | 57 | 1016.6 |
| 20260507122044 | 14 | 68 | 8.0 | 19.3 | 0.00 | 0.00 | 0.00 | 58 | 1016.5 |
| 20260507121024 | 14 | 90 | 11.3 | 20.9 | 0.00 | 0.00 | 0.00 | 58 | 1016.5 |
| 20260507120025 | 15 | 90 | 6.4 | 17.7 | 0.00 | 0.00 | 0.00 | 57 | 1016.5 |
| 20260507115024 | 15 | 68 | 14.5 | 24.1 | 0.00 | 0.00 | 0.00 | 55 | 1016.4 |
| 20260507114044 | 15 | 68 | 12.9 | 24.1 | 0.00 | 0.00 | 0.00 | 54 | 1016.5 |
| 20260507113024 | 15 | 68 | 8.0 | 19.3 | 0.00 | 0.00 | 0.00 | 58 | 1016.6 |
| 20260507112024 | 13 | 90 | 8.0 | 20.9 | 0.00 | 0.00 | 0.00 | 59 | 1016.5 |
| 20260507111024 | 14 | 90 | 8.0 | 14.5 | 0.00 | 0.00 | 0.00 | 59 | 1016.4 |
| 20260507110024 | 13 | 90 | 11.3 | 20.9 | 0.00 | 0.00 | 0.00 | 61 | 1016.4 |
| 20260507105024 | 13 | 23 | 6.4 | 17.7 | 0.00 | 0.00 | 0.00 | 63 | 1016.5 |
| 20260507104024 | 13 | 90 | 8.0 | 20.9 | 0.00 | 0.00 | 0.00 | 62 | 1016.4 |
| 20260507103024 | 13 | 113 | 9.7 | 19.3 | 0.00 | 0.00 | 0.00 | 59 | 1016.3 |
| 20260507102024 | 13 | 68 | 11.3 | 25.7 | 0.00 | 0.00 | 0.00 | 60 | 1016.4 |
| 20260507101024 | 13 | 45 | 6.4 | 17.7 | 0.00 | 0.00 | 0.00 | 63 | 1016.3 |
| 20260507100024 | 12 | 90 | 12.9 | 22.5 | 0.00 | 0.00 | 0.00 | 62 | 1016.2 |
| 20260507095024 | 12 | 68 | 11.3 | 19.3 | 0.00 | 0.00 | 0.00 | 64 | 1016.1 |
| 20260507094024 | 12 | 68 | 9.7 | 19.3 | 0.00 | 0.00 | 0.00 | 68 | 1016.2 |
| 20260507093024 | 12 | 68 | 4.8 | 17.7 | 0.00 | 0.00 | 0.00 | 68 | 1016.1 |
| 20260507092024 | 12 | 45 | 6.4 | 16.1 | 0.00 | 0.00 | 0.00 | 70 | 1016.1 |
| 20260507091024 | 12 | 68 | 8.0 | 17.7 | 0.00 | 0.00 | 0.00 | 67 | 1016.0 |
| 20260507090024 | 11 | 68 | 11.3 | 22.5 | 0.00 | 0.00 | 0.00 | 70 | 1015.9 |
| 20260507085024 | 11 | 68 | 6.4 | 20.9 | 0.00 | 0.00 | 0.00 | 74 | 1016.0 |
| 20260507084044 | 11 | 68 | 6.4 | 19.3 | 0.00 | 0.00 | 0.00 | 75 | 1016.0 |
| 20260507083044 | 11 | 68 | 8.0 | 20.9 | 0.00 | 0.00 | 0.00 | 74 | 1015.9 |
| 20260507082044 | 11 | 90 | 9.7 | 22.5 | 0.00 | 0.00 | 0.00 | 73 | 1015.8 |
| 20260507081044 | 11 | 68 | 6.4 | 16.1 | 0.00 | 0.00 | 0.00 | 76 | 1015.8 |
| 20260507080024 | 10 | 68 | 9.7 | 22.5 | 0.00 | 0.00 | 0.00 | 75 | 1015.8 |
| 20260507075026 | 10 | 45 | 11.3 | 22.5 | 0.00 | 0.00 | 0.00 | 77 | 1015.7 |
| 20260507074026 | 10 | 68 | 11.3 | 20.9 | 0.00 | 0.00 | 0.00 | 77 | 1015.4 |
| 20260507073026 | 9 | 90 | 9.7 | 19.3 | 0.00 | 0.00 | 0.00 | 79 | 1015.4 |
| 20260507072026 | 8 | 90 | 11.3 | 19.3 | 0.00 | 0.00 | 0.00 | 79 | 1015.3 |
| 20260507071046 | 8 | 90 | 12.9 | 25.7 | 0.00 | 0.00 | 0.00 | 79 | 1015.2 |
| 20260507070026 | 8 | 68 | 12.9 | 20.9 | 0.00 | 0.00 | 0.00 | 80 | 1015.3 |
| 20260507065046 | 8 | 90 | 12.9 | 25.7 | 0.00 | 0.00 | 0.00 | 80 | 1015.3 |
| 20260507064026 | 8 | 90 | 8.0 | 20.9 | 0.00 | 0.00 | 0.00 | 82 | 1015.1 |
| 20260507063026 | 8 | 68 | 9.7 | 20.9 | 0.00 | 0.00 | 0.00 | 82 | 1014.9 |
| 20260507062026 | 8 | 68 | 11.3 | 17.7 | 0.00 | 0.00 | 0.00 | 82 | 1014.7 |
| 20260507061146 | 8 | 90 | 6.4 | 16.1 | 0.00 | 0.00 | 0.00 | 84 | 1014.7 |
| 20260507060026 | 7 | 68 | 6.4 | 16.1 | 0.00 | 0.00 | 0.00 | 87 | 1014.7 |
| 20260507055026 | 7 | 68 | 8.0 | 17.7 | 0.00 | 0.00 | 0.00 | 88 | 1014.5 |
| 20260507054026 | 7 | 68 | 6.4 | 16.1 | 0.00 | 0.00 | 0.00 | 88 | 1014.5 |
| 20260507053026 | 7 | 68 | 6.4 | 19.3 | 0.00 | 0.00 | 0.00 | 88 | 1014.3 |
| 20260507052026 | 7 | 68 | 9.7 | 20.9 | 0.00 | 0.00 | 0.00 | 88 | 1014.3 |
| 20260507051046 | 7 | 68 | 6.4 | 20.9 | 0.00 | 0.00 | 0.00 | 89 | 1014.1 |
| 20260507050026 | 7 | 68 | 4.8 | 14.5 | 0.00 | 0.00 | 0.00 | 89 | 1014.1 |
| 20260507045026 | 7 | 68 | 8.0 | 17.7 | 0.00 | 0.00 | 0.00 | 89 | 1013.9 |
| 20260507044026 | 7 | 68 | 4.8 | 11.3 | 0.00 | 0.00 | 0.00 | 89 | 1013.8 |
| 20260507043026 | 7 | 68 | 6.4 | 12.9 | 0.00 | 0.00 | 0.00 | 89 | 1013.6 |
| 20260507042026 | 7 | 68 | 6.4 | 16.1 | 0.00 | 0.00 | 0.00 | 89 | 1013.6 |
| 20260507041026 | 7 | 68 | 6.4 | 17.7 | 0.00 | 0.00 | 0.00 | 89 | 1013.5 |
| 20260507040025 | 7 | 68 | 8.0 | 19.3 | 0.00 | 0.00 | 0.00 | 89 | 1013.4 |
| 20260507035026 | 7 | 68 | 8.0 | 19.3 | 0.00 | 0.00 | 0.00 | 88 | 1013.4 |
| 20260507034025 | 7 | 68 | 8.0 | 16.1 | 0.00 | 0.00 | 0.00 | 88 | 1013.3 |
| 20260507033025 | 7 | 68 | 6.4 | 14.5 | 0.00 | 0.00 | 0.00 | 88 | 1013.3 |
| 20260507032025 | 7 | 68 | 4.8 | 12.9 | 0.00 | 0.00 | 0.00 | 88 | 1013.2 |
| 20260507031026 | 7 | 45 | 8.0 | 16.1 | 0.00 | 0.00 | 0.00 | 88 | 1013.1 |
| 20260507030025 | 7 | 68 | 6.4 | 17.7 | 0.00 | 0.00 | 0.00 | 88 | 1013.0 |
| 20260507025026 | 7 | 68 | 6.4 | 17.7 | 0.00 | 0.00 | 0.00 | 88 | 1013.0 |
| 20260507024025 | 7 | 68 | 3.2 | 14.5 | 0.00 | 0.00 | 0.00 | 87 | 1012.9 |
| 20260507023046 | 7 | 68 | 6.4 | 16.1 | 0.00 | 0.00 | 0.00 | 87 | 1012.8 |
| 20260507022045 | 7 | 68 | 8.0 | 16.1 | 0.00 | 0.00 | 0.00 | 87 | 1012.7 |
| 20260507021025 | 7 | 68 | 11.3 | 22.5 | 0.00 | 0.00 | 0.00 | 87 | 1012.7 |
| 20260507020026 | 7 | 68 | 9.7 | 19.3 | 0.00 | 0.00 | 0.00 | 87 | 1012.7 |
| 20260507015025 | 7 | 90 | 8.0 | 19.3 | 0.00 | 0.00 | 0.00 | 87 | 1012.6 |
| 20260507014025 | 7 | 68 | 8.0 | 20.9 | 0.00 | 0.00 | 0.00 | 86 | 1012.6 |
| 20260507013025 | 7 | 68 | 6.4 | 12.9 | 0.00 | 0.00 | 0.00 | 86 | 1012.4 |
| 20260507012025 | 7 | 90 | 4.8 | 16.1 | 0.00 | 0.00 | 0.00 | 86 | 1012.4 |
| 20260507011025 | 7 | 90 | 8.0 | 16.1 | 0.00 | 0.00 | 0.00 | 86 | 1012.4 |
| 20260507010025 | 7 | 90 | 12.9 | 24.1 | 0.00 | 0.00 | 0.00 | 86 | 1012.4 |
| 20260507005025 | 7 | 68 | 11.3 | 22.5 | 0.00 | 0.00 | 0.00 | 86 | 1012.3 |
| 20260507004125 | 7 | 68 | 12.9 | 25.7 | 0.00 | 0.00 | 0.00 | 86 | 1012.3 |
| 20260507003045 | 7 | 68 | 14.5 | 25.7 | 0.00 | 0.00 | 0.00 | 86 | 1012.3 |
| 20260507002025 | 7 | 68 | 11.3 | 22.5 | 0.00 | 0.00 | 0.00 | 87 | 1012.2 |
| 20260507001025 | 7 | 68 | 8.0 | 16.1 | 0.00 | 0.00 | 0.00 | 87 | 1012.2 |
| 20260507000025 | 7 | 68 | 6.4 | 22.5 | 0.00 | 0.00 | 0.00 | 87 | 1012.2 |
| 20260506235025 | 7 | 68 | 11.3 | 22.5 | 0.00 | 0.00 | 0.00 | 87 | 1012.2 |
| 20260506234025 | 7 | 68 | 11.3 | 20.9 | 0.00 | 0.00 | 0.00 | 87 | 1012.1 |
| 20260506233025 | 7 | 90 | 6.4 | 14.5 | 0.00 | 0.00 | 0.00 | 88 | 1012.2 |
| 20260506232025 | 7 | 68 | 8.0 | 19.3 | 0.00 | 0.00 | 0.00 | 88 | 1012.1 |
| 20260506231045 | 7 | 68 | 11.3 | 19.3 | 0.00 | 0.00 | 0.00 | 88 | 1012.0 |
| 20260506230025 | 7 | 68 | 8.0 | 16.1 | 0.00 | 0.00 | 0.00 | 88 | 1012.0 |
| 20260506225026 | 7 | 68 | 11.3 | 22.5 | 0.00 | 0.00 | 0.00 | 88 | 1012.0 |
| 20260506224025 | 7 | 68 | 12.9 | 22.5 | 0.00 | 0.00 | 0.00 | 88 | 1011.9 |
| 20260506223025 | 7 | 68 | 12.9 | 25.7 | 0.00 | 0.00 | 0.00 | 89 | 1011.7 |
| 20260506222025 | 7 | 68 | 14.5 | 25.7 | 0.00 | 0.00 | 0.00 | 89 | 1011.6 |
| 20260506221025 | 7 | 68 | 12.9 | 25.7 | 0.00 | 0.00 | 0.00 | 89 | 1011.6 |
| 20260506220025 | 7 | 68 | 11.3 | 27.4 | 0.00 | 0.00 | 0.00 | 89 | 1011.6 |
| 20260506215025 | 7 | 68 | 6.4 | 17.7 | 0.00 | 0.00 | 0.00 | 90 | 1011.5 |
| 20260506214025 | 7 | 68 | 4.8 | 14.5 | 0.00 | 0.00 | 0.00 | 89 | 1011.4 |
| 20260506213025 | 7 | 68 | 6.4 | 14.5 | 0.00 | 0.00 | 0.00 | 89 | 1011.3 |
| 20260506212045 | 7 | 68 | 12.9 | 25.7 | 0.00 | 0.00 | 0.00 | 89 | 1011.3 |
| 20260506211025 | 7 | 68 | 12.9 | 22.5 | 0.00 | 0.00 | 0.00 | 89 | 1011.3 |
| 20260506210025 | 7 | 68 | 14.5 | 24.1 | 0.00 | 0.00 | 0.00 | 89 | 1011.2 |
| 20260506205025 | 8 | 68 | 12.9 | 22.5 | 0.00 | 0.00 | 0.00 | 89 | 1011.2 |
| 20260506204025 | 8 | 68 | 11.3 | 22.5 | 0.00 | 0.00 | 0.00 | 89 | 1011.1 |
| 20260506203025 | 8 | 68 | 11.3 | 22.5 | 0.00 | 0.00 | 0.00 | 89 | 1011.1 |
| 20260506202025 | 8 | 68 | 11.3 | 20.9 | 0.00 | 0.00 | 0.00 | 89 | 1011.1 |
| 20260506201025 | 8 | 68 | 11.3 | 20.9 | 0.00 | 0.00 | 0.00 | 89 | 1011.0 |
| 20260506200045 | 8 | 68 | 9.7 | 19.3 | 0.00 | 0.00 | 0.00 | 89 | 1011.0 |
| 20260506195024 | 8 | 68 | 9.7 | 20.9 | 0.00 | 0.00 | 0.00 | 88 | 1011.0 |
| 20260506194024 | 8 | 68 | 12.9 | 25.7 | 0.00 | 0.00 | 0.00 | 88 | 1010.8 |
| 20260506193024 | 8 | 68 | 11.3 | 25.7 | 0.00 | 0.00 | 0.00 | 88 | 1010.7 |
| 20260506192024 | 9 | 68 | 6.4 | 19.3 | 0.00 | 0.00 | 0.00 | 88 | 1010.5 |
| 20260506191025 | 9 | 68 | 9.7 | 20.9 | 0.00 | 0.00 | 0.00 | 87 | 1010.4 |
| 20260506190024 | 9 | 68 | 9.7 | 24.1 | 0.00 | 0.00 | 0.00 | 86 | 1010.3 |
| 20260506185024 | 9 | 68 | 11.3 | 24.1 | 0.00 | 0.00 | 0.00 | 86 | 1010.0 |
| 20260506184024 | 9 | 68 | 12.9 | 29.0 | 0.00 | 0.00 | 0.00 | 85 | 1009.9 |
| 20260506183044 | 10 | 90 | 9.7 | 20.9 | 0.00 | 0.00 | 0.00 | 83 | 1009.9 |
| 20260506182025 | 10 | 68 | 11.3 | 27.4 | 0.00 | 0.00 | 0.00 | 82 | 1009.8 |
| 20260506181025 | 10 | 68 | 11.3 | 19.3 | 0.00 | 0.00 | 0.00 | 81 | 1009.7 |
| 20260506180025 | 10 | 68 | 9.7 | 16.1 | 0.00 | 0.00 | 0.00 | 81 | 1009.7 |
| 20260506175024 | 10 | 90 | 11.3 | 19.3 | 0.00 | 0.00 | 0.00 | 79 | 1009.6 |
| 20260506174025 | 11 | 68 | 3.2 | 16.1 | 0.00 | 0.00 | 0.00 | 79 | 1009.5 |
| 20260506173104 | 11 | 68 | 8.0 | 19.3 | 0.00 | 0.00 | 0.00 | 80 | 1009.4 |
| 20260506172024 | 11 | 68 | 8.0 | 17.7 | 0.00 | 0.00 | 0.00 | 79 | 1009.3 |
| 20260506171024 | 11 | 68 | 4.8 | 17.7 | 0.00 | 0.00 | 0.00 | 79 | 1009.2 |
| 20260506170024 | 11 | 68 | 3.2 | 11.3 | 0.00 | 0.00 | 0.00 | 79 | 1009.2 |
| 20260506165104 | 11 | 68 | 3.2 | 11.3 | 0.00 | 0.00 | 0.00 | 78 | 1009.2 |
| 20260506164024 | 11 | 68 | 3.2 | 14.5 | 0.00 | 0.00 | 0.00 | 77 | 1009.2 |
| 20260506163024 | 11 | 68 | 8.0 | 16.1 | 0.00 | 0.00 | 0.00 | 77 | 1009.1 |
| 20260506162024 | 11 | 68 | 3.2 | 14.5 | 0.00 | 0.00 | 0.00 | 79 | 1009.0 |
| 20260506161044 | 12 | 68 | 4.8 | 14.5 | 0.00 | 0.00 | 0.00 | 78 | 1009.1 |
| 20260506160044 | 12 | 68 | 3.2 | 14.5 | 0.00 | 0.00 | 0.00 | 79 | 1009.1 |
| 20260506155104 | 12 | 68 | 4.8 | 16.1 | 0.00 | 0.00 | 0.00 | 79 | 1009.0 |
| 20260506154024 | 12 | 45 | 4.8 | 12.9 | 0.00 | 0.00 | 0.00 | 79 | 1009.1 |